sensor_id;sensor_type;location;lat;lon;timestamp;pressure;altitude;pressure_sealevel;temperature;humidity
60055;BME280;45930;53.514;55.904;2023-04-01T00:00:45;48620.97;;;-149.77;100.00
60055;BME280;45930;53.514;55.904;2023-04-01T00:01:46;48620.97;;;-149.77;100.00
60055;BME280;45930;53.514;55.904;2023-04-01T00:02:47;48595.22;;;-149.77;100.00
60055;BME280;45930;53.514;55.904;2023-04-01T00:03:48;48605.13;;;-149.77;100.00
60055;BME280;45930;53.514;55.904;2023-04-01T00:04:49;48640.78;;;-149.77;100.00
60055;BME280;45930;53.514;55.904;2023-04-01T00:05:49;48609.09;;;-149.77;100.00
60055;BME280;45930;53.514;55.904;2023-04-01T00:06:50;48624.94;;;-149.77;100.00
60055;BME280;45930;53.514;55.904;2023-04-01T00:07:52;48615.03;;;-149.77;100.00
60055;BME280;45930;53.514;55.904;2023-04-01T00:08:52;48619.00;;;-149.77;100.00
60055;BME280;45930;53.514;55.904;2023-04-01T00:09:53;48599.19;;;-149.77;100.00
60055;BME280;45930;53.514;55.904;2023-04-01T00:10:54;48589.28;;;-149.77;100.00
60055;BME280;45930;53.514;55.904;2023-04-01T00:11:55;48613.06;;;-149.77;100.00
60055;BME280;45930;53.514;55.904;2023-04-01T00:12:56;48607.13;;;-149.77;100.00
60055;BME280;45930;53.514;55.904;2023-04-01T00:13:57;48605.13;;;-149.77;100.00
60055;BME280;45930;53.514;55.904;2023-04-01T00:14:58;48595.22;;;-149.77;100.00
60055;BME280;45930;53.514;55.904;2023-04-01T00:15:59;48583.34;;;-149.77;100.00
60055;BME280;45930;53.514;55.904;2023-04-01T00:17:00;48611.06;;;-149.77;100.00
60055;BME280;45930;53.514;55.904;2023-04-01T00:18:01;48622.97;;;-149.77;100.00
60055;BME280;45930;53.514;55.904;2023-04-01T00:19:02;48589.28;;;-149.77;100.00
60055;BME280;45930;53.514;55.904;2023-04-01T00:20:04;48593.25;;;-149.77;100.00
60055;BME280;45930;53.514;55.904;2023-04-01T00:21:06;48619.00;;;-149.77;100.00
60055;BME280;45930;53.514;55.904;2023-04-01T00:22:07;48607.13;;;-149.77;100.00
60055;BME280;45930;53.514;55.904;2023-04-01T00:23:12;48601.16;;;-149.77;100.00
60055;BME280;45930;53.514;55.904;2023-04-01T00:24:13;48607.13;;;-149.77;100.00
60055;BME280;45930;53.514;55.904;2023-04-01T00:25:14;48626.91;;;-149.77;100.00
60055;BME280;45930;53.514;55.904;2023-04-01T00:26:15;48622.97;;;-149.77;100.00
60055;BME280;45930;53.514;55.904;2023-04-01T00:27:19;48615.03;;;-149.77;100.00
60055;BME280;45930;53.514;55.904;2023-04-01T00:28:20;48601.16;;;-149.77;100.00
60055;BME280;45930;53.514;55.904;2023-04-01T00:29:21;48585.31;;;-149.77;100.00
60055;BME280;45930;53.514;55.904;2023-04-01T00:30:24;48587.31;;;-149.77;100.00
60055;BME280;45930;53.514;55.904;2023-04-01T00:31:25;48593.25;;;-149.77;100.00
60055;BME280;45930;53.514;55.904;2023-04-01T00:32:26;48601.16;;;-149.77;100.00
60055;BME280;45930;53.514;55.904;2023-04-01T00:33:27;48605.13;;;-149.77;100.00
60055;BME280;45930;53.514;55.904;2023-04-01T00:34:28;48605.13;;;-149.77;100.00
60055;BME280;45930;53.514;55.904;2023-04-01T00:35:29;48583.34;;;-149.77;100.00
60055;BME280;45930;53.514;55.904;2023-04-01T00:36:30;48593.25;;;-149.77;100.00
60055;BME280;45930;53.514;55.904;2023-04-01T00:37:31;48585.31;;;-149.77;100.00
60055;BME280;45930;53.514;55.904;2023-04-01T00:38:31;48581.38;;;-149.77;100.00
60055;BME280;45930;53.514;55.904;2023-04-01T00:39:33;48595.22;;;-149.77;100.00
60055;BME280;45930;53.514;55.904;2023-04-01T00:40:40;48619.00;;;-149.77;100.00
60055;BME280;45930;53.514;55.904;2023-04-01T00:41:41;48607.13;;;-149.77;100.00
60055;BME280;45930;53.514;55.904;2023-04-01T00:42:42;48619.00;;;-149.77;100.00
60055;BME280;45930;53.514;55.904;2023-04-01T00:43:45;48595.22;;;-149.77;100.00
60055;BME280;45930;53.514;55.904;2023-04-01T00:44:51;48599.19;;;-149.77;100.00
60055;BME280;45930;53.514;55.904;2023-04-01T00:45:52;48640.78;;;-149.77;100.00
60055;BME280;45930;53.514;55.904;2023-04-01T00:46:53;48624.94;;;-149.77;100.00
60055;BME280;45930;53.514;55.904;2023-04-01T00:47:54;48644.75;;;-149.77;100.00
60055;BME280;45930;53.514;55.904;2023-04-01T00:48:55;48640.78;;;-149.77;100.00
60055;BME280;45930;53.514;55.904;2023-04-01T00:49:57;48619.00;;;-149.77;100.00
60055;BME280;45930;53.514;55.904;2023-04-01T00:52:11;48587.31;;;-149.77;100.00
60055;BME280;45930;53.514;55.904;2023-04-01T00:53:14;48609.09;;;-149.77;100.00
60055;BME280;45930;53.514;55.904;2023-04-01T00:54:16;48591.28;;;-149.77;100.00
60055;BME280;45930;53.514;55.904;2023-04-01T00:55:19;48589.28;;;-149.77;100.00
60055;BME280;45930;53.514;55.904;2023-04-01T00:56:24;48595.22;;;-149.77;100.00
60055;BME280;45930;53.514;55.904;2023-04-01T00:57:34;48603.16;;;-149.77;100.00
60055;BME280;45930;53.514;55.904;2023-04-01T00:58:40;48605.13;;;-149.77;100.00
60055;BME280;45930;53.514;55.904;2023-04-01T00:59:47;48595.22;;;-149.77;100.00
60055;BME280;45930;53.514;55.904;2023-04-01T01:00:49;48605.13;;;-149.77;100.00
60055;BME280;45930;53.514;55.904;2023-04-01T01:01:51;48581.38;;;-149.77;100.00
60055;BME280;45930;53.514;55.904;2023-04-01T01:02:52;48583.34;;;-149.77;100.00
60055;BME280;45930;53.514;55.904;2023-04-01T01:03:53;48553.63;;;-149.77;100.00
60055;BME280;45930;53.514;55.904;2023-04-01T01:04:54;48597.22;;;-149.77;100.00
60055;BME280;45930;53.514;55.904;2023-04-01T01:06:08;48597.22;;;-149.77;100.00
60055;BME280;45930;53.514;55.904;2023-04-01T01:11:11;48567.50;;;-149.77;100.00
60055;BME280;45930;53.514;55.904;2023-04-01T01:12:21;48597.22;;;-149.77;100.00
60055;BME280;45930;53.514;55.904;2023-04-01T01:13:34;48583.34;;;-149.77;100.00
60055;BME280;45930;53.514;55.904;2023-04-01T01:15:52;48593.25;;;-149.77;100.00
60055;BME280;45930;53.514;55.904;2023-04-01T01:17:13;48585.31;;;-149.77;100.00
60055;BME280;45930;53.514;55.904;2023-04-01T01:28:05;48613.06;;;-149.77;100.00
60055;BME280;45930;53.514;55.904;2023-04-01T01:32:16;48593.25;;;-149.77;100.00
60055;BME280;45930;53.514;55.904;2023-04-01T01:34:36;48585.31;;;-149.77;100.00
60055;BME280;45930;53.514;55.904;2023-04-01T01:35:52;48589.28;;;-149.77;100.00
60055;BME280;45930;53.514;55.904;2023-04-01T01:36:59;48567.50;;;-149.77;100.00
60055;BME280;45930;53.514;55.904;2023-04-01T01:38:05;48634.84;;;-149.77;100.00
60055;BME280;45930;53.514;55.904;2023-04-01T01:39:08;48585.31;;;-149.77;100.00
60055;BME280;45930;53.514;55.904;2023-04-01T01:40:11;48577.41;;;-149.77;100.00
60055;BME280;45930;53.514;55.904;2023-04-01T01:41:15;48561.56;;;-149.77;100.00
60055;BME280;45930;53.514;55.904;2023-04-01T01:42:18;48555.63;;;-149.77;100.00
60055;BME280;45930;53.514;55.904;2023-04-01T01:43:23;48587.31;;;-149.77;100.00
60055;BME280;45930;53.514;55.904;2023-04-01T01:44:27;48591.28;;;-149.77;100.00
60055;BME280;45930;53.514;55.904;2023-04-01T01:45:30;48595.22;;;-149.77;100.00
60055;BME280;45930;53.514;55.904;2023-04-01T01:46:33;48591.28;;;-149.77;100.00
60055;BME280;45930;53.514;55.904;2023-04-01T01:47:35;48549.69;;;-149.77;100.00
60055;BME280;45930;53.514;55.904;2023-04-01T01:48:37;48587.31;;;-149.77;100.00
60055;BME280;45930;53.514;55.904;2023-04-01T01:49:39;48587.31;;;-149.77;100.00
60055;BME280;45930;53.514;55.904;2023-04-01T01:50:44;48579.38;;;-149.77;100.00
60055;BME280;45930;53.514;55.904;2023-04-01T01:51:46;48581.38;;;-149.77;100.00
60055;BME280;45930;53.514;55.904;2023-04-01T01:52:46;48571.47;;;-149.77;100.00
60055;BME280;45930;53.514;55.904;2023-04-01T01:53:47;48569.47;;;-149.77;100.00
60055;BME280;45930;53.514;55.904;2023-04-01T01:54:52;48583.34;;;-149.77;100.00
60055;BME280;45930;53.514;55.904;2023-04-01T01:55:54;48583.34;;;-149.77;100.00
60055;BME280;45930;53.514;55.904;2023-04-01T01:57:07;48603.16;;;-149.77;100.00
60055;BME280;45930;53.514;55.904;2023-04-01T01:58:18;48601.16;;;-149.77;100.00
60055;BME280;45930;53.514;55.904;2023-04-01T01:59:20;48593.25;;;-149.77;100.00
60055;BME280;45930;53.514;55.904;2023-04-01T02:00:23;48634.84;;;-149.77;100.00
60055;BME280;45930;53.514;55.904;2023-04-01T02:01:26;48613.06;;;-149.77;100.00
60055;BME280;45930;53.514;55.904;2023-04-01T02:02:28;48620.97;;;-149.77;100.00
60055;BME280;45930;53.514;55.904;2023-04-01T02:03:35;48585.31;;;-149.77;100.00
60055;BME280;45930;53.514;55.904;2023-04-01T02:04:39;48597.22;;;-149.77;100.00
60055;BME280;45930;53.514;55.904;2023-04-01T02:05:40;48605.13;;;-149.77;100.00
60055;BME280;45930;53.514;55.904;2023-04-01T02:06:50;48597.22;;;-149.77;100.00
60055;BME280;45930;53.514;55.904;2023-04-01T02:08:07;48593.25;;;-149.77;100.00
60055;BME280;45930;53.514;55.904;2023-04-01T02:09:11;48624.94;;;-149.77;100.00
60055;BME280;45930;53.514;55.904;2023-04-01T02:10:12;48609.09;;;-149.77;100.00
60055;BME280;45930;53.514;55.904;2023-04-01T02:11:15;48628.91;;;-149.77;100.00
60055;BME280;45930;53.514;55.904;2023-04-01T02:12:21;48613.06;;;-149.77;100.00
60055;BME280;45930;53.514;55.904;2023-04-01T02:13:31;48593.25;;;-149.77;100.00
60055;BME280;45930;53.514;55.904;2023-04-01T02:14:56;48587.31;;;-149.77;100.00
60055;BME280;45930;53.514;55.904;2023-04-01T02:16:02;48603.16;;;-149.77;100.00
60055;BME280;45930;53.514;55.904;2023-04-01T02:17:11;48609.09;;;-149.77;100.00
60055;BME280;45930;53.514;55.904;2023-04-01T02:18:15;48593.25;;;-149.77;100.00
60055;BME280;45930;53.514;55.904;2023-04-01T02:19:18;48607.13;;;-149.77;100.00
60055;BME280;45930;53.514;55.904;2023-04-01T02:20:23;48615.03;;;-149.77;100.00
60055;BME280;45930;53.514;55.904;2023-04-01T02:21:28;48599.19;;;-149.77;100.00
60055;BME280;45930;53.514;55.904;2023-04-01T02:22:36;48619.00;;;-149.77;100.00
60055;BME280;45930;53.514;55.904;2023-04-01T02:23:38;48601.16;;;-149.77;100.00
60055;BME280;45930;53.514;55.904;2023-04-01T02:24:40;48585.31;;;-149.77;100.00
60055;BME280;45930;53.514;55.904;2023-04-01T02:25:43;48559.59;;;-149.77;100.00
60055;BME280;45930;53.514;55.904;2023-04-01T02:26:45;48609.09;;;-149.77;100.00
60055;BME280;45930;53.514;55.904;2023-04-01T02:27:46;48626.91;;;-149.77;100.00
60055;BME280;45930;53.514;55.904;2023-04-01T02:28:47;48601.16;;;-149.77;100.00
60055;BME280;45930;53.514;55.904;2023-04-01T02:29:50;48579.38;;;-149.77;100.00
60055;BME280;45930;53.514;55.904;2023-04-01T02:30:52;48587.31;;;-149.77;100.00
60055;BME280;45930;53.514;55.904;2023-04-01T02:31:53;48585.31;;;-149.77;100.00
60055;BME280;45930;53.514;55.904;2023-04-01T02:32:56;48601.16;;;-149.77;100.00
60055;BME280;45930;53.514;55.904;2023-04-01T02:33:58;48619.00;;;-149.77;100.00
60055;BME280;45930;53.514;55.904;2023-04-01T02:34:59;48605.13;;;-149.77;100.00
60055;BME280;45930;53.514;55.904;2023-04-01T02:36:05;48605.13;;;-149.77;100.00
60055;BME280;45930;53.514;55.904;2023-04-01T02:37:06;48593.25;;;-149.77;100.00
60055;BME280;45930;53.514;55.904;2023-04-01T02:38:07;48613.06;;;-149.77;100.00
60055;BME280;45930;53.514;55.904;2023-04-01T02:39:08;48615.03;;;-149.77;100.00
60055;BME280;45930;53.514;55.904;2023-04-01T02:40:12;48620.97;;;-149.77;100.00
60055;BME280;45930;53.514;55.904;2023-04-01T02:41:13;48620.97;;;-149.77;100.00
60055;BME280;45930;53.514;55.904;2023-04-01T02:42:14;48636.81;;;-149.77;100.00
60055;BME280;45930;53.514;55.904;2023-04-01T02:43:15;48630.88;;;-149.77;100.00
60055;BME280;45930;53.514;55.904;2023-04-01T02:44:16;48624.94;;;-149.77;100.00
60055;BME280;45930;53.514;55.904;2023-04-01T02:45:17;48636.81;;;-149.77;100.00
60055;BME280;45930;53.514;55.904;2023-04-01T02:46:18;48617.00;;;-149.77;100.00
60055;BME280;45930;53.514;55.904;2023-04-01T02:47:19;48628.91;;;-149.77;100.00
60055;BME280;45930;53.514;55.904;2023-04-01T02:48:20;48607.13;;;-149.77;100.00
60055;BME280;45930;53.514;55.904;2023-04-01T02:49:21;48617.00;;;-149.77;100.00
60055;BME280;45930;53.514;55.904;2023-04-01T02:50:21;48617.00;;;-149.77;100.00
60055;BME280;45930;53.514;55.904;2023-04-01T02:51:22;48617.00;;;-149.77;100.00
60055;BME280;45930;53.514;55.904;2023-04-01T02:52:24;48605.13;;;-149.77;100.00
60055;BME280;45930;53.514;55.904;2023-04-01T02:53:25;48640.78;;;-149.77;100.00
60055;BME280;45930;53.514;55.904;2023-04-01T02:54:25;48585.31;;;-149.77;100.00
60055;BME280;45930;53.514;55.904;2023-04-01T02:55:26;48605.13;;;-149.77;100.00
60055;BME280;45930;53.514;55.904;2023-04-01T02:56:27;48601.16;;;-149.77;100.00
60055;BME280;45930;53.514;55.904;2023-04-01T02:57:28;48611.06;;;-149.77;100.00
60055;BME280;45930;53.514;55.904;2023-04-01T02:58:29;48619.00;;;-149.77;100.00
60055;BME280;45930;53.514;55.904;2023-04-01T02:59:30;48605.13;;;-149.77;100.00
60055;BME280;45930;53.514;55.904;2023-04-01T03:00:31;48622.97;;;-149.77;100.00
60055;BME280;45930;53.514;55.904;2023-04-01T03:01:32;48605.13;;;-149.77;100.00
60055;BME280;45930;53.514;55.904;2023-04-01T03:02:32;48613.06;;;-149.77;100.00
60055;BME280;45930;53.514;55.904;2023-04-01T03:03:33;48632.84;;;-149.77;100.00
60055;BME280;45930;53.514;55.904;2023-04-01T03:04:34;48605.13;;;-149.77;100.00
60055;BME280;45930;53.514;55.904;2023-04-01T03:05:35;48626.91;;;-149.77;100.00
60055;BME280;45930;53.514;55.904;2023-04-01T03:06:35;48640.78;;;-149.77;100.00
60055;BME280;45930;53.514;55.904;2023-04-01T03:07:39;48607.13;;;-149.77;100.00
60055;BME280;45930;53.514;55.904;2023-04-01T03:08:40;48595.22;;;-149.77;100.00
60055;BME280;45930;53.514;55.904;2023-04-01T03:09:41;48620.97;;;-149.77;100.00
60055;BME280;45930;53.514;55.904;2023-04-01T03:10:42;48613.06;;;-149.77;100.00
60055;BME280;45930;53.514;55.904;2023-04-01T03:11:42;48613.06;;;-149.77;100.00
60055;BME280;45930;53.514;55.904;2023-04-01T03:12:43;48611.06;;;-149.77;100.00
60055;BME280;45930;53.514;55.904;2023-04-01T03:13:44;48597.22;;;-149.77;100.00
60055;BME280;45930;53.514;55.904;2023-04-01T03:14:44;48597.22;;;-149.77;100.00
60055;BME280;45930;53.514;55.904;2023-04-01T03:15:45;48585.31;;;-149.77;100.00
60055;BME280;45930;53.514;55.904;2023-04-01T03:16:46;48619.00;;;-149.77;100.00
60055;BME280;45930;53.514;55.904;2023-04-01T03:17:47;48605.13;;;-149.77;100.00
60055;BME280;45930;53.514;55.904;2023-04-01T03:18:48;48615.03;;;-149.77;100.00
60055;BME280;45930;53.514;55.904;2023-04-01T03:19:50;48577.41;;;-149.77;100.00
60055;BME280;45930;53.514;55.904;2023-04-01T03:20:51;48603.16;;;-149.77;100.00
60055;BME280;45930;53.514;55.904;2023-04-01T03:21:52;48605.13;;;-149.77;100.00
60055;BME280;45930;53.514;55.904;2023-04-01T03:22:53;48613.06;;;-149.77;100.00
60055;BME280;45930;53.514;55.904;2023-04-01T03:23:54;48589.28;;;-149.77;100.00
60055;BME280;45930;53.514;55.904;2023-04-01T03:24:55;48589.28;;;-149.77;100.00
60055;BME280;45930;53.514;55.904;2023-04-01T03:25:55;48601.16;;;-149.77;100.00
60055;BME280;45930;53.514;55.904;2023-04-01T03:26:56;48599.19;;;-149.77;100.00
60055;BME280;45930;53.514;55.904;2023-04-01T03:27:57;48581.38;;;-149.77;100.00
60055;BME280;45930;53.514;55.904;2023-04-01T03:29:00;48591.28;;;-149.77;100.00
60055;BME280;45930;53.514;55.904;2023-04-01T03:30:02;48583.34;;;-149.77;100.00
60055;BME280;45930;53.514;55.904;2023-04-01T03:31:04;48589.28;;;-149.77;100.00
60055;BME280;45930;53.514;55.904;2023-04-01T03:32:06;48575.41;;;-149.77;100.00
60055;BME280;45930;53.514;55.904;2023-04-01T03:33:06;48617.00;;;-149.77;100.00
60055;BME280;45930;53.514;55.904;2023-04-01T03:34:07;48595.22;;;-149.77;100.00
60055;BME280;45930;53.514;55.904;2023-04-01T03:35:08;48607.13;;;-149.77;100.00
60055;BME280;45930;53.514;55.904;2023-04-01T03:36:10;48636.81;;;-149.77;100.00
60055;BME280;45930;53.514;55.904;2023-04-01T03:37:13;48585.31;;;-149.77;100.00
60055;BME280;45930;53.514;55.904;2023-04-01T03:38:15;48620.97;;;-149.77;100.00
60055;BME280;45930;53.514;55.904;2023-04-01T03:39:16;48617.00;;;-149.77;100.00
60055;BME280;45930;53.514;55.904;2023-04-01T03:40:19;48593.25;;;-149.77;100.00
60055;BME280;45930;53.514;55.904;2023-04-01T03:41:20;48622.97;;;-149.77;100.00
60055;BME280;45930;53.514;55.904;2023-04-01T03:42:21;48605.13;;;-149.77;100.00
60055;BME280;45930;53.514;55.904;2023-04-01T03:43:22;48583.34;;;-149.77;100.00
60055;BME280;45930;53.514;55.904;2023-04-01T03:44:22;48609.09;;;-149.77;100.00
60055;BME280;45930;53.514;55.904;2023-04-01T03:45:23;48613.06;;;-149.77;100.00
60055;BME280;45930;53.514;55.904;2023-04-01T03:46:24;48577.41;;;-149.77;100.00
60055;BME280;45930;53.514;55.904;2023-04-01T03:47:25;48581.38;;;-149.77;100.00
60055;BME280;45930;53.514;55.904;2023-04-01T03:48:26;48597.22;;;-149.77;100.00
60055;BME280;45930;53.514;55.904;2023-04-01T03:49:27;48624.94;;;-149.77;100.00
60055;BME280;45930;53.514;55.904;2023-04-01T03:50:27;48597.22;;;-149.77;100.00
60055;BME280;45930;53.514;55.904;2023-04-01T03:51:28;48573.44;;;-149.77;100.00
60055;BME280;45930;53.514;55.904;2023-04-01T03:52:29;48603.16;;;-149.77;100.00
60055;BME280;45930;53.514;55.904;2023-04-01T03:53:30;48607.13;;;-149.77;100.00
60055;BME280;45930;53.514;55.904;2023-04-01T03:54:31;48605.13;;;-149.77;100.00
60055;BME280;45930;53.514;55.904;2023-04-01T03:55:32;48619.00;;;-149.77;100.00
60055;BME280;45930;53.514;55.904;2023-04-01T03:56:33;48603.16;;;-149.77;100.00
60055;BME280;45930;53.514;55.904;2023-04-01T03:57:34;48613.06;;;-149.77;100.00
60055;BME280;45930;53.514;55.904;2023-04-01T03:58:35;48593.25;;;-149.77;100.00
60055;BME280;45930;53.514;55.904;2023-04-01T03:59:36;48583.34;;;-149.77;100.00
60055;BME280;45930;53.514;55.904;2023-04-01T04:00:36;48577.41;;;-149.77;100.00
60055;BME280;45930;53.514;55.904;2023-04-01T04:01:37;48585.31;;;-149.77;100.00
60055;BME280;45930;53.514;55.904;2023-04-01T04:02:38;48561.56;;;-149.77;100.00
60055;BME280;45930;53.514;55.904;2023-04-01T04:03:39;48583.34;;;-149.77;100.00
60055;BME280;45930;53.514;55.904;2023-04-01T04:04:40;48585.31;;;-149.77;100.00
60055;BME280;45930;53.514;55.904;2023-04-01T04:05:48;48571.47;;;-149.77;100.00
60055;BME280;45930;53.514;55.904;2023-04-01T04:06:49;48579.38;;;-149.77;100.00
60055;BME280;45930;53.514;55.904;2023-04-01T04:07:52;48573.44;;;-149.77;100.00
60055;BME280;45930;53.514;55.904;2023-04-01T04:08:53;48585.31;;;-149.77;100.00
60055;BME280;45930;53.514;55.904;2023-04-01T04:09:54;48585.31;;;-149.77;100.00
60055;BME280;45930;53.514;55.904;2023-04-01T04:10:55;48595.22;;;-149.77;100.00
60055;BME280;45930;53.514;55.904;2023-04-01T04:11:56;48589.28;;;-149.77;100.00
60055;BME280;45930;53.514;55.904;2023-04-01T04:12:57;48593.25;;;-149.77;100.00
60055;BME280;45930;53.514;55.904;2023-04-01T04:13:58;48597.22;;;-149.77;100.00
60055;BME280;45930;53.514;55.904;2023-04-01T04:14:59;48632.84;;;-149.77;100.00
60055;BME280;45930;53.514;55.904;2023-04-01T04:16:01;48605.13;;;-149.77;100.00
60055;BME280;45930;53.514;55.904;2023-04-01T04:17:02;48589.28;;;-149.77;100.00
60055;BME280;45930;53.514;55.904;2023-04-01T04:18:03;48597.22;;;-149.77;100.00
60055;BME280;45930;53.514;55.904;2023-04-01T04:19:04;48595.22;;;-149.77;100.00
60055;BME280;45930;53.514;55.904;2023-04-01T04:20:05;48565.53;;;-149.77;100.00
60055;BME280;45930;53.514;55.904;2023-04-01T04:21:06;48599.19;;;-149.77;100.00
60055;BME280;45930;53.514;55.904;2023-04-01T04:22:07;48557.59;;;-149.77;100.00
60055;BME280;45930;53.514;55.904;2023-04-01T04:23:07;48575.41;;;-149.77;100.00
60055;BME280;45930;53.514;55.904;2023-04-01T04:24:09;48605.13;;;-149.77;100.00
60055;BME280;45930;53.514;55.904;2023-04-01T04:25:10;48593.25;;;-149.77;100.00
60055;BME280;45930;53.514;55.904;2023-04-01T04:26:13;48591.28;;;-149.77;100.00
60055;BME280;45930;53.514;55.904;2023-04-01T04:27:14;48593.25;;;-149.77;100.00
60055;BME280;45930;53.514;55.904;2023-04-01T04:28:14;48567.50;;;-149.77;100.00
60055;BME280;45930;53.514;55.904;2023-04-01T04:29:15;48603.16;;;-149.77;100.00
60055;BME280;45930;53.514;55.904;2023-04-01T04:30:16;48593.25;;;-149.77;100.00
60055;BME280;45930;53.514;55.904;2023-04-01T04:31:21;48593.25;;;-149.77;100.00
60055;BME280;45930;53.514;55.904;2023-04-01T04:32:22;48626.91;;;-149.77;99.94
60055;BME280;45930;53.514;55.904;2023-04-01T04:33:24;48609.09;;;-149.77;99.93
60055;BME280;45930;53.514;55.904;2023-04-01T04:34:24;48617.00;;;-149.77;100.00
60055;BME280;45930;53.514;55.904;2023-04-01T04:35:25;48573.44;;;-149.77;100.00
60055;BME280;45930;53.514;55.904;2023-04-01T04:36:26;48569.47;;;-149.77;100.00
60055;BME280;45930;53.514;55.904;2023-04-01T04:37:27;48577.41;;;-149.77;100.00
60055;BME280;45930;53.514;55.904;2023-04-01T04:38:28;48591.28;;;-149.77;100.00
60055;BME280;45930;53.514;55.904;2023-04-01T04:39:29;48577.41;;;-149.77;100.00
60055;BME280;45930;53.514;55.904;2023-04-01T04:40:30;48595.22;;;-149.77;100.00
60055;BME280;45930;53.514;55.904;2023-04-01T04:41:31;48583.34;;;-149.77;99.28
60055;BME280;45930;53.514;55.904;2023-04-01T04:42:32;48583.34;;;-149.77;99.38
60055;BME280;45930;53.514;55.904;2023-04-01T04:43:33;48591.28;;;-149.77;99.16
60055;BME280;45930;53.514;55.904;2023-04-01T04:44:34;48624.94;;;-149.77;98.70
60055;BME280;45930;53.514;55.904;2023-04-01T04:45:34;48593.25;;;-149.77;99.04
60055;BME280;45930;53.514;55.904;2023-04-01T04:46:35;48573.44;;;-149.77;98.92
60055;BME280;45930;53.514;55.904;2023-04-01T04:47:37;48624.94;;;-149.77;98.22
60055;BME280;45930;53.514;55.904;2023-04-01T04:48:38;48613.06;;;-149.77;98.18
60055;BME280;45930;53.514;55.904;2023-04-01T04:49:39;48632.84;;;-149.77;98.44
60055;BME280;45930;53.514;55.904;2023-04-01T04:50:40;48595.22;;;-149.77;99.39
60055;BME280;45930;53.514;55.904;2023-04-01T04:51:41;48597.22;;;-149.77;99.91
60055;BME280;45930;53.514;55.904;2023-04-01T04:52:41;48569.47;;;-149.77;100.00
60055;BME280;45930;53.514;55.904;2023-04-01T04:53:43;48595.22;;;-149.77;100.00
60055;BME280;45930;53.514;55.904;2023-04-01T04:54:44;48581.38;;;-149.77;100.00
60055;BME280;45930;53.514;55.904;2023-04-01T04:55:46;48569.47;;;-149.77;100.00
60055;BME280;45930;53.514;55.904;2023-04-01T04:56:48;48559.59;;;-149.77;100.00
60055;BME280;45930;53.514;55.904;2023-04-01T04:57:48;48543.75;;;-149.77;100.00
60055;BME280;45930;53.514;55.904;2023-04-01T04:58:49;48555.63;;;-149.77;100.00
60055;BME280;45930;53.514;55.904;2023-04-01T04:59:50;48555.63;;;-149.77;100.00
60055;BME280;45930;53.514;55.904;2023-04-01T05:00:51;48557.59;;;-149.77;100.00
60055;BME280;45930;53.514;55.904;2023-04-01T05:01:52;48543.75;;;-149.77;100.00
60055;BME280;45930;53.514;55.904;2023-04-01T05:02:53;48615.03;;;-149.77;97.58
60055;BME280;45930;53.514;55.904;2023-04-01T05:03:53;48622.97;;;-149.77;96.71
60055;BME280;45930;53.514;55.904;2023-04-01T05:04:54;48638.78;;;-149.77;96.45
60055;BME280;45930;53.514;55.904;2023-04-01T05:05:55;48620.97;;;-149.77;97.28
60055;BME280;45930;53.514;55.904;2023-04-01T05:06:56;48613.06;;;-149.77;98.26
60055;BME280;45930;53.514;55.904;2023-04-01T05:07:57;48603.16;;;-149.77;98.63
60055;BME280;45930;53.514;55.904;2023-04-01T05:08:58;48561.56;;;-149.77;99.57
60055;BME280;45930;53.514;55.904;2023-04-01T05:09:58;48559.59;;;-149.77;99.96
60055;BME280;45930;53.514;55.904;2023-04-01T05:11:00;48563.53;;;-149.77;100.00
60055;BME280;45930;53.514;55.904;2023-04-01T05:12:02;48541.75;;;-149.77;100.00
60055;BME280;45930;53.514;55.904;2023-04-01T05:13:03;48545.72;;;-149.77;100.00
60055;BME280;45930;53.514;55.904;2023-04-01T05:14:05;48587.31;;;-149.77;98.56
60055;BME280;45930;53.514;55.904;2023-04-01T05:15:06;48585.31;;;-149.77;98.87
60055;BME280;45930;53.514;55.904;2023-04-01T05:16:19;48575.41;;;-149.77;98.34
60055;BME280;45930;53.514;55.904;2023-04-01T05:17:20;48609.09;;;-149.77;98.44
60055;BME280;45930;53.514;55.904;2023-04-01T05:18:21;48569.47;;;-149.77;99.36
60055;BME280;45930;53.514;55.904;2023-04-01T05:19:22;48585.31;;;-149.77;99.38
60055;BME280;45930;53.514;55.904;2023-04-01T05:20:23;48563.53;;;-149.77;99.39
60055;BME280;45930;53.514;55.904;2023-04-01T05:21:24;48557.59;;;-149.77;99.55
60055;BME280;45930;53.514;55.904;2023-04-01T05:22:24;48579.38;;;-149.77;99.42
60055;BME280;45930;53.514;55.904;2023-04-01T05:23:25;48573.44;;;-149.77;99.22
60055;BME280;45930;53.514;55.904;2023-04-01T05:24:26;48559.59;;;-149.77;99.38
60055;BME280;45930;53.514;55.904;2023-04-01T05:25:27;48553.63;;;-149.77;99.88
60055;BME280;45930;53.514;55.904;2023-04-01T05:26:28;48569.47;;;-149.77;99.67
60055;BME280;45930;53.514;55.904;2023-04-01T05:27:28;48573.44;;;-149.77;99.11
60055;BME280;45930;53.514;55.904;2023-04-01T05:28:29;48543.75;;;-149.77;99.23
60055;BME280;45930;53.514;55.904;2023-04-01T05:29:30;48567.50;;;-149.77;99.05
60055;BME280;45930;53.514;55.904;2023-04-01T05:30:31;48567.50;;;-149.77;98.94
60055;BME280;45930;53.514;55.904;2023-04-01T05:31:32;48561.56;;;-149.77;98.92
60055;BME280;45930;53.514;55.904;2023-04-01T05:32:35;48573.44;;;-149.77;98.15
60055;BME280;45930;53.514;55.904;2023-04-01T05:33:36;48551.66;;;-149.77;98.38